Skip Navigation Links
NOAA logo - Click to go to the NOAA homepage
NOAA's National Weather Service
Alaska Aviation Weather Unit
  NWS logo - Click to go to the NWS homepage
Left Navbar Graphic     08 AKDT = 16 GMT

   
NOAA is celebrating 200 years of science, service, and stewardship. Visit the NOAA 200th celebration Web site to learn more.
USA.gov is the U.S. Government's official Web portal to all Federal, state and local government Web resources and services.
Facebook
NWS on Facebook

Important Change Regarding the AAWU Web Presence

 

Over the last several months, the AAWU has been working to navigate its webpages to a nationally supported server. Security, as well as other needs, have necessitated the change.  In the process, we have made an effort to enhance the functionality of our website, as well as some of our products. As of June 20, 2017, aawu.arh.noaa.gov will be discontinued. The new AAWU web address is weather.gov/aawu. It is now live and will run in-parallel with the old site until it is discontinued. Please send any feedback or questions regarding the new webpages to nws.ar.aawu.webauthors@noaa.gov.  Thank you for your patience during this time of transition.
AAWU Home :: Display TAF Add Bookmark
TAF PASY 231620Z 2316/2420 24012G18KT 9000 -SHRA BKN009 BKN015
      OVC030 610099 QNH2966INS
      TEMPO 2316/2317 25015G25KT SCT010 BKN015 620159
      BECMG 2317/2318 27015G25KT 9999 VCSH FEW015 BKN025 BKN050
      BKN070 620256 QNH2969INS
      TEMPO 2321/2403 29025G35KT 9000 -SHRA SCT015 BKN025 620556
      510003
      BECMG 2406/2407 27012G18KT 9999 NSW SCT020 QNH3003INS
      BECMG 2413/2414 25015G25KT 9999 FEW015 SCT200 QNH3015INS
      TX05/2401Z TN01/2415Z=
METAR PASY 231056Z 22020G25KT 7SM SCT025 SCT033 SCT049 04/01 A2967=

PASY 231107Z FEW013 BKN021 BKN030 A2967=

SPECI PASY 231107Z FEW013 BKN021 BKN030 A2967 RMK AO2 $=

PASY 231120Z FEW018 SCT025 BKN032 A2967=

SPECI PASY 231120Z FEW018 SCT025 BKN032 A2967 RMK AO2 RAB09E19 $=

METAR PASY 231156Z 22016KT 7SM FEW027 SCT035 BKN085 04/01 A2967=

PASY 231256Z UP FEW012 BKN021 OVC048 A2965=

METAR PASY 231356Z 23016KT 7SM SCT012 BKN020 OVC033 02/01 A2964=

PASY 231403Z COR 23015KT 7SM FEW012 SCT026 BKN041 02/01 A2964=

SPECI PASY 231403Z COR 23015KT 7SM FEW012 SCT026 BKN041 02/01 A2964
RMK AO2 WND DATA ESTMD $ COR 1405=

PASY 231416Z 23015KT 7SM -RA SCT014 BKN026 OVC065 02/01 A2965=

SPECI PASY 231416Z 23015KT 7SM -RA SCT014 BKN026 OVC065 02/01 A2965
RMK AO2 RAB10 WND DATA ESTMD $=

METAR PASY 231456Z 23015KT 7SM -RA SCT014 BKN026 OVC065 02/01 A2965=

METAR PASY 231503Z 26018KT 7SM -RA SCT010 SCT019 OVC033 02/01 A2965=

SPECI PASY 231503Z 26018KT 7SM -RA SCT010 SCT019 OVC033 02/01 A2965
RMK AO2 WND DATA ESTMD $=

PASY 231506Z 25009KT 7SM -RA SCT008 BKN017 OVC029 02/01 A2965=

SPECI PASY 231506Z 25009KT 7SM -RA SCT008 BKN017 OVC029 02/01 A2965
RMK AO2 WND DATA ESTMD $=

PASY 231517Z 26016KT 5SM -RA BR SCT008 BKN031 OVC065 01/01
     A2965=

SPECI PASY 231517Z 26016KT 5SM -RA BR SCT008 BKN031 OVC065 01/01
A2965 RMK AO2 WND DATA ESTMD $=

PASY 231522Z 26016KT 5SM BR BKN008 BKN015 OVC033 01/01 A2965=

SPECI PASY 231522Z 26016KT 5SM BR BKN008 BKN015 OVC033 01/01 A2965
RMK AO2 RAE20 WND DATA ESTMD $=

PASY 231529Z 26016KT 5SM BR SCT008 SCT015 OVC065 01/01 A2965=

SPECI PASY 231529Z 26016KT 5SM BR SCT008 SCT015 OVC065 01/01 A2965
RMK AO2 RAE20 WND DATA ESTMD $=

METAR PASY 231556Z 26016KT 5SM BR SCT008 SCT015 OVC065 01/01 A2966=

PASY 231605Z -RA SCT010 BKN014 BKN019 A2966=

SPECI PASY 231605Z -RA SCT010 BKN014 BKN019 A2966 RMK AO2 RAB1557 $=

METAR PASY 231612Z 26019KT 7SM BKN009 BKN014 02/01 A2966=

SPECI PASY 231612Z 26019KT 7SM BKN009 BKN014 02/01 A2966 RMK AO2
RAB1557E06 CIG 008V013 WND DATA ESTMD $=


NOAA's National Weather Service
Alaska Aviation Weather Unit
6930 Sand Lake Road
Anchorage, AK 99502-1845
Disclaimer
Credits
Glossary
Privacy Policy
About Us
Career Opportunities
Contact AAWU Internet Services Site last modified: April, 17th 2012